sensor_id;sensor_type;location;lat;lon;timestamp;temperature;humidity
17797;DHT22;55596;53.554;9.916;2022-09-03T00:02:38;14.20;99.90
17797;DHT22;55596;53.554;9.916;2022-09-03T00:05:14;14.20;99.90
17797;DHT22;55596;53.554;9.916;2022-09-03T00:07:48;14.00;99.90
17797;DHT22;55596;53.554;9.916;2022-09-03T00:10:24;14.00;99.90
17797;DHT22;55596;53.554;9.916;2022-09-03T00:12:57;13.90;99.90
17797;DHT22;55596;53.554;9.916;2022-09-03T00:15:27;14.00;99.90
17797;DHT22;55596;53.554;9.916;2022-09-03T00:18:00;13.90;99.90
17797;DHT22;55596;53.554;9.916;2022-09-03T00:20:31;14.10;99.90
17797;DHT22;55596;53.554;9.916;2022-09-03T00:23:00;13.80;99.90
17797;DHT22;55596;53.554;9.916;2022-09-03T00:25:39;13.80;99.90
17797;DHT22;55596;53.554;9.916;2022-09-03T00:31:21;13.90;99.90
17797;DHT22;55596;53.554;9.916;2022-09-03T00:33:55;14.10;99.90
17797;DHT22;55596;53.554;9.916;2022-09-03T00:36:27;13.90;99.90
17797;DHT22;55596;53.554;9.916;2022-09-03T00:38:57;13.70;99.90
17797;DHT22;55596;53.554;9.916;2022-09-03T00:41:29;13.60;99.90
17797;DHT22;55596;53.554;9.916;2022-09-03T00:44:13;13.60;99.90
17797;DHT22;55596;53.554;9.916;2022-09-03T00:46:53;13.70;99.90
17797;DHT22;55596;53.554;9.916;2022-09-03T00:49:30;13.60;99.90
17797;DHT22;55596;53.554;9.916;2022-09-03T00:52:06;13.70;99.90
17797;DHT22;55596;53.554;9.916;2022-09-03T00:54:45;13.60;99.90
17797;DHT22;55596;53.554;9.916;2022-09-03T00:57:25;14.20;99.90
17797;DHT22;55596;53.554;9.916;2022-09-03T01:00:03;13.80;99.90
17797;DHT22;55596;53.554;9.916;2022-09-03T01:02:39;13.80;99.90
17797;DHT22;55596;53.554;9.916;2022-09-03T01:05:21;13.80;99.90
17797;DHT22;55596;53.554;9.916;2022-09-03T01:07:57;14.00;99.90
17797;DHT22;55596;53.554;9.916;2022-09-03T01:10:36;14.00;99.90
17797;DHT22;55596;53.554;9.916;2022-09-03T01:13:12;13.90;99.90
17797;DHT22;55596;53.554;9.916;2022-09-03T01:15:47;13.90;99.90
17797;DHT22;55596;53.554;9.916;2022-09-03T01:18:27;13.70;99.90
17797;DHT22;55596;53.554;9.916;2022-09-03T01:21:11;13.80;99.90
17797;DHT22;55596;53.554;9.916;2022-09-03T01:27:00;13.60;99.90
17797;DHT22;55596;53.554;9.916;2022-09-03T01:29:50;13.50;99.90
17797;DHT22;55596;53.554;9.916;2022-09-03T01:32:25;15.70;99.90
17797;DHT22;55596;53.554;9.916;2022-09-03T01:35:01;13.40;99.90
17797;DHT22;55596;53.554;9.916;2022-09-03T01:37:36;13.40;99.90
17797;DHT22;55596;53.554;9.916;2022-09-03T01:40:12;13.50;99.90
17797;DHT22;55596;53.554;9.916;2022-09-03T01:42:58;13.50;99.90
17797;DHT22;55596;53.554;9.916;2022-09-03T01:45:44;13.30;99.90
17797;DHT22;55596;53.554;9.916;2022-09-03T01:48:25;13.40;99.90
17797;DHT22;55596;53.554;9.916;2022-09-03T01:51:04;13.60;99.90
17797;DHT22;55596;53.554;9.916;2022-09-03T01:53:45;13.40;99.90
17797;DHT22;55596;53.554;9.916;2022-09-03T01:56:30;13.40;99.90
17797;DHT22;55596;53.554;9.916;2022-09-03T01:59:04;13.30;99.90
17797;DHT22;55596;53.554;9.916;2022-09-03T02:01:51;13.40;99.90
17797;DHT22;55596;53.554;9.916;2022-09-03T02:04:20;13.30;99.90
17797;DHT22;55596;53.554;9.916;2022-09-03T02:06:49;13.50;99.90
17797;DHT22;55596;53.554;9.916;2022-09-03T02:09:17;13.30;99.90
17797;DHT22;55596;53.554;9.916;2022-09-03T02:11:48;13.20;99.90
17797;DHT22;55596;53.554;9.916;2022-09-03T02:14:17;13.20;99.90
17797;DHT22;55596;53.554;9.916;2022-09-03T02:16:45;14.70;99.90
17797;DHT22;55596;53.554;9.916;2022-09-03T02:19:15;13.20;99.90
17797;DHT22;55596;53.554;9.916;2022-09-03T02:21:45;14.80;99.90
17797;DHT22;55596;53.554;9.916;2022-09-03T02:24:13;13.20;99.90
17797;DHT22;55596;53.554;9.916;2022-09-03T02:26:42;13.10;99.90
17797;DHT22;55596;53.554;9.916;2022-09-03T02:29:09;13.10;99.90
17797;DHT22;55596;53.554;9.916;2022-09-03T02:31:36;13.10;99.90
17797;DHT22;55596;53.554;9.916;2022-09-03T02:34:04;13.00;99.90
17797;DHT22;55596;53.554;9.916;2022-09-03T02:36:34;12.90;99.90
17797;DHT22;55596;53.554;9.916;2022-09-03T02:39:03;12.90;99.90
17797;DHT22;55596;53.554;9.916;2022-09-03T02:41:30;12.80;99.90
17797;DHT22;55596;53.554;9.916;2022-09-03T02:44:00;12.90;99.90
17797;DHT22;55596;53.554;9.916;2022-09-03T02:46:32;12.80;99.90
17797;DHT22;55596;53.554;9.916;2022-09-03T02:49:00;12.90;99.90
17797;DHT22;55596;53.554;9.916;2022-09-03T02:51:32;13.00;99.90
17797;DHT22;55596;53.554;9.916;2022-09-03T02:53:59;12.80;99.90
17797;DHT22;55596;53.554;9.916;2022-09-03T02:56:28;12.80;99.90
17797;DHT22;55596;53.554;9.916;2022-09-03T02:58:55;13.20;99.90
17797;DHT22;55596;53.554;9.916;2022-09-03T03:01:22;13.00;99.90
17797;DHT22;55596;53.554;9.916;2022-09-03T03:03:49;13.00;99.90
17797;DHT22;55596;53.554;9.916;2022-09-03T03:06:16;12.90;99.90
17797;DHT22;55596;53.554;9.916;2022-09-03T03:08:46;13.10;99.90
17797;DHT22;55596;53.554;9.916;2022-09-03T03:11:14;13.00;99.90
17797;DHT22;55596;53.554;9.916;2022-09-03T03:13:43;13.00;99.90
17797;DHT22;55596;53.554;9.916;2022-09-03T03:16:12;13.10;99.90
17797;DHT22;55596;53.554;9.916;2022-09-03T03:18:39;12.90;99.90
17797;DHT22;55596;53.554;9.916;2022-09-03T03:21:08;12.90;99.90
17797;DHT22;55596;53.554;9.916;2022-09-03T03:23:36;12.90;99.90
17797;DHT22;55596;53.554;9.916;2022-09-03T03:26:06;13.00;99.90
17797;DHT22;55596;53.554;9.916;2022-09-03T03:28:34;12.90;99.90
17797;DHT22;55596;53.554;9.916;2022-09-03T03:31:05;12.90;99.90
17797;DHT22;55596;53.554;9.916;2022-09-03T03:33:32;12.90;99.90
17797;DHT22;55596;53.554;9.916;2022-09-03T03:36:13;12.80;99.90
17797;DHT22;55596;53.554;9.916;2022-09-03T03:38:41;12.90;99.90
17797;DHT22;55596;53.554;9.916;2022-09-03T03:41:12;12.60;99.90
17797;DHT22;55596;53.554;9.916;2022-09-03T03:43:40;12.90;99.90
17797;DHT22;55596;53.554;9.916;2022-09-03T03:46:07;12.90;99.90
17797;DHT22;55596;53.554;9.916;2022-09-03T03:48:35;13.10;99.90
17797;DHT22;55596;53.554;9.916;2022-09-03T03:51:04;13.20;99.90
17797;DHT22;55596;53.554;9.916;2022-09-03T03:53:31;13.00;99.90
17797;DHT22;55596;53.554;9.916;2022-09-03T03:55:59;13.10;99.90
17797;DHT22;55596;53.554;9.916;2022-09-03T03:58:31;13.00;99.90
17797;DHT22;55596;53.554;9.916;2022-09-03T04:01:04;13.00;99.90
17797;DHT22;55596;53.554;9.916;2022-09-03T04:03:32;12.90;99.90
17797;DHT22;55596;53.554;9.916;2022-09-03T04:05:59;13.00;99.90
17797;DHT22;55596;53.554;9.916;2022-09-03T04:08:27;13.10;99.90
17797;DHT22;55596;53.554;9.916;2022-09-03T04:10:59;13.10;99.90
17797;DHT22;55596;53.554;9.916;2022-09-03T04:13:29;12.90;99.90
17797;DHT22;55596;53.554;9.916;2022-09-03T04:16:00;12.90;99.90
17797;DHT22;55596;53.554;9.916;2022-09-03T04:18:27;12.70;99.90
17797;DHT22;55596;53.554;9.916;2022-09-03T04:20:58;12.70;99.90
17797;DHT22;55596;53.554;9.916;2022-09-03T04:23:27;12.70;99.90
17797;DHT22;55596;53.554;9.916;2022-09-03T04:25:53;12.70;99.90
17797;DHT22;55596;53.554;9.916;2022-09-03T04:28:20;12.70;99.90
17797;DHT22;55596;53.554;9.916;2022-09-03T04:30:49;12.60;99.90
17797;DHT22;55596;53.554;9.916;2022-09-03T04:33:15;12.50;99.90
17797;DHT22;55596;53.554;9.916;2022-09-03T04:35:42;12.40;99.90
17797;DHT22;55596;53.554;9.916;2022-09-03T04:38:09;12.50;99.90
17797;DHT22;55596;53.554;9.916;2022-09-03T04:40:36;12.70;99.90
17797;DHT22;55596;53.554;9.916;2022-09-03T04:43:03;13.00;99.90
17797;DHT22;55596;53.554;9.916;2022-09-03T04:45:31;12.80;99.90
17797;DHT22;55596;53.554;9.916;2022-09-03T04:47:59;12.80;99.90
17797;DHT22;55596;53.554;9.916;2022-09-03T04:50:28;12.60;99.90
17797;DHT22;55596;53.554;9.916;2022-09-03T04:52:55;12.80;99.90
17797;DHT22;55596;53.554;9.916;2022-09-03T04:55:23;12.60;99.90
17797;DHT22;55596;53.554;9.916;2022-09-03T04:57:50;13.30;99.90
17797;DHT22;55596;53.554;9.916;2022-09-03T05:00:17;12.40;99.90
17797;DHT22;55596;53.554;9.916;2022-09-03T05:02:45;12.40;99.90
17797;DHT22;55596;53.554;9.916;2022-09-03T05:05:17;12.50;99.90
17797;DHT22;55596;53.554;9.916;2022-09-03T05:07:44;12.50;99.90
17797;DHT22;55596;53.554;9.916;2022-09-03T05:10:12;12.40;99.90
17797;DHT22;55596;53.554;9.916;2022-09-03T05:12:45;12.60;99.90
17797;DHT22;55596;53.554;9.916;2022-09-03T05:15:12;12.50;99.90
17797;DHT22;55596;53.554;9.916;2022-09-03T05:17:39;12.20;99.90
17797;DHT22;55596;53.554;9.916;2022-09-03T05:20:06;12.40;99.90
17797;DHT22;55596;53.554;9.916;2022-09-03T05:22:37;12.60;99.90
17797;DHT22;55596;53.554;9.916;2022-09-03T05:25:05;12.70;99.90
17797;DHT22;55596;53.554;9.916;2022-09-03T05:27:31;12.80;99.90
17797;DHT22;55596;53.554;9.916;2022-09-03T05:29:59;12.80;99.90
17797;DHT22;55596;53.554;9.916;2022-09-03T05:32:25;12.70;99.90
17797;DHT22;55596;53.554;9.916;2022-09-03T05:34:55;12.60;99.90
17797;DHT22;55596;53.554;9.916;2022-09-03T05:37:22;12.80;99.90
17797;DHT22;55596;53.554;9.916;2022-09-03T05:39:50;12.90;99.90
17797;DHT22;55596;53.554;9.916;2022-09-03T05:42:18;12.80;99.90
17797;DHT22;55596;53.554;9.916;2022-09-03T05:44:46;12.80;99.90
17797;DHT22;55596;53.554;9.916;2022-09-03T05:47:13;12.80;99.90
17797;DHT22;55596;53.554;9.916;2022-09-03T05:49:41;12.80;99.90
17797;DHT22;55596;53.554;9.916;2022-09-03T05:52:07;13.20;99.90
17797;DHT22;55596;53.554;9.916;2022-09-03T05:54:34;13.10;99.90
17797;DHT22;55596;53.554;9.916;2022-09-03T05:57:03;13.30;99.90
17797;DHT22;55596;53.554;9.916;2022-09-03T05:59:30;12.90;99.90
17797;DHT22;55596;53.554;9.916;2022-09-03T06:01:57;13.30;99.90
17797;DHT22;55596;53.554;9.916;2022-09-03T06:04:24;13.50;99.90
17797;DHT22;55596;53.554;9.916;2022-09-03T06:06:51;13.40;99.90
17797;DHT22;55596;53.554;9.916;2022-09-03T06:09:19;13.60;99.90
17797;DHT22;55596;53.554;9.916;2022-09-03T06:11:47;13.40;99.90
17797;DHT22;55596;53.554;9.916;2022-09-03T06:14:16;13.70;99.90
17797;DHT22;55596;53.554;9.916;2022-09-03T06:16:57;13.60;99.90
17797;DHT22;55596;53.554;9.916;2022-09-03T06:19:23;13.90;99.90
17797;DHT22;55596;53.554;9.916;2022-09-03T06:21:50;13.90;99.90
17797;DHT22;55596;53.554;9.916;2022-09-03T06:24:19;13.90;99.90
17797;DHT22;55596;53.554;9.916;2022-09-03T06:26:47;14.10;99.90
17797;DHT22;55596;53.554;9.916;2022-09-03T06:29:16;14.40;99.90
17797;DHT22;55596;53.554;9.916;2022-09-03T06:31:43;14.10;99.90
17797;DHT22;55596;53.554;9.916;2022-09-03T06:34:10;14.20;99.90
17797;DHT22;55596;53.554;9.916;2022-09-03T06:36:39;14.30;99.90
17797;DHT22;55596;53.554;9.916;2022-09-03T06:39:07;14.40;99.90
17797;DHT22;55596;53.554;9.916;2022-09-03T06:41:34;14.30;99.90
17797;DHT22;55596;53.554;9.916;2022-09-03T06:44:02;14.50;99.90
17797;DHT22;55596;53.554;9.916;2022-09-03T06:46:32;14.60;99.90
17797;DHT22;55596;53.554;9.916;2022-09-03T06:49:00;14.60;99.90
17797;DHT22;55596;53.554;9.916;2022-09-03T06:51:29;14.60;99.90
17797;DHT22;55596;53.554;9.916;2022-09-03T06:53:59;14.60;99.90
17797;DHT22;55596;53.554;9.916;2022-09-03T06:56:26;14.70;99.90
17797;DHT22;55596;53.554;9.916;2022-09-03T06:58:54;14.90;99.90
17797;DHT22;55596;53.554;9.916;2022-09-03T07:01:23;14.80;99.90
17797;DHT22;55596;53.554;9.916;2022-09-03T07:03:54;15.00;99.90
17797;DHT22;55596;53.554;9.916;2022-09-03T07:06:22;15.10;99.90
17797;DHT22;55596;53.554;9.916;2022-09-03T07:08:50;15.00;99.90
17797;DHT22;55596;53.554;9.916;2022-09-03T07:11:18;15.00;99.90
17797;DHT22;55596;53.554;9.916;2022-09-03T07:13:48;15.30;99.90
17797;DHT22;55596;53.554;9.916;2022-09-03T07:16:17;15.30;99.90
17797;DHT22;55596;53.554;9.916;2022-09-03T07:18:44;15.50;99.90
17797;DHT22;55596;53.554;9.916;2022-09-03T07:21:15;15.50;99.90
17797;DHT22;55596;53.554;9.916;2022-09-03T07:23:42;15.70;99.90
17797;DHT22;55596;53.554;9.916;2022-09-03T07:26:11;15.70;99.90
17797;DHT22;55596;53.554;9.916;2022-09-03T07:28:40;15.80;99.90
17797;DHT22;55596;53.554;9.916;2022-09-03T07:31:09;15.90;99.90
17797;DHT22;55596;53.554;9.916;2022-09-03T07:33:37;16.20;99.90
17797;DHT22;55596;53.554;9.916;2022-09-03T07:36:05;16.90;99.90
17797;DHT22;55596;53.554;9.916;2022-09-03T07:38:34;16.20;99.90
17797;DHT22;55596;53.554;9.916;2022-09-03T07:41:03;16.30;99.90
17797;DHT22;55596;53.554;9.916;2022-09-03T07:43:33;16.40;99.90
17797;DHT22;55596;53.554;9.916;2022-09-03T07:46:00;16.50;99.90
17797;DHT22;55596;53.554;9.916;2022-09-03T07:48:27;16.50;99.90
17797;DHT22;55596;53.554;9.916;2022-09-03T07:50:57;16.60;99.90
17797;DHT22;55596;53.554;9.916;2022-09-03T07:53:26;17.00;99.90
17797;DHT22;55596;53.554;9.916;2022-09-03T07:56:00;16.70;99.90
17797;DHT22;55596;53.554;9.916;2022-09-03T07:58:28;16.90;99.90
17797;DHT22;55596;53.554;9.916;2022-09-03T08:00:55;17.30;99.90
17797;DHT22;55596;53.554;9.916;2022-09-03T08:03:22;17.20;99.90
17797;DHT22;55596;53.554;9.916;2022-09-03T08:05:52;17.30;99.90
17797;DHT22;55596;53.554;9.916;2022-09-03T08:08:20;17.40;99.90
17797;DHT22;55596;53.554;9.916;2022-09-03T08:10:46;17.60;99.90
17797;DHT22;55596;53.554;9.916;2022-09-03T08:13:17;17.40;99.90
17797;DHT22;55596;53.554;9.916;2022-09-03T08:15:52;17.80;99.90
17797;DHT22;55596;53.554;9.916;2022-09-03T08:18:19;17.90;99.90
17797;DHT22;55596;53.554;9.916;2022-09-03T08:20:47;17.80;99.90
17797;DHT22;55596;53.554;9.916;2022-09-03T08:23:14;17.60;99.90
17797;DHT22;55596;53.554;9.916;2022-09-03T08:25:41;18.10;99.90
17797;DHT22;55596;53.554;9.916;2022-09-03T08:28:08;18.20;99.90
17797;DHT22;55596;53.554;9.916;2022-09-03T08:30:37;18.10;99.90
17797;DHT22;55596;53.554;9.916;2022-09-03T08:33:04;18.50;99.90
17797;DHT22;55596;53.554;9.916;2022-09-03T08:35:31;18.50;99.90
17797;DHT22;55596;53.554;9.916;2022-09-03T08:37:59;18.30;99.90
17797;DHT22;55596;53.554;9.916;2022-09-03T08:40:30;18.70;99.90
17797;DHT22;55596;53.554;9.916;2022-09-03T08:43:08;18.60;99.90
17797;DHT22;55596;53.554;9.916;2022-09-03T08:45:40;18.90;99.90
17797;DHT22;55596;53.554;9.916;2022-09-03T08:48:11;18.90;99.90
17797;DHT22;55596;53.554;9.916;2022-09-03T08:50:42;19.00;99.90
17797;DHT22;55596;53.554;9.916;2022-09-03T08:53:14;19.30;99.90
17797;DHT22;55596;53.554;9.916;2022-09-03T08:55:49;19.10;99.90
17797;DHT22;55596;53.554;9.916;2022-09-03T08:58:18;19.30;99.90
17797;DHT22;55596;53.554;9.916;2022-09-03T09:00:51;19.40;99.90
17797;DHT22;55596;53.554;9.916;2022-09-03T09:03:40;19.80;99.90
17797;DHT22;55596;53.554;9.916;2022-09-03T09:06:17;19.70;99.90
17797;DHT22;55596;53.554;9.916;2022-09-03T09:09:02;20.00;99.90
17797;DHT22;55596;53.554;9.916;2022-09-03T09:11:48;19.70;99.90
17797;DHT22;55596;53.554;9.916;2022-09-03T09:14:21;19.60;99.90
17797;DHT22;55596;53.554;9.916;2022-09-03T09:16:58;19.90;99.90
17797;DHT22;55596;53.554;9.916;2022-09-03T09:19:38;20.10;99.90
17797;DHT22;55596;53.554;9.916;2022-09-03T09:22:10;20.10;99.90
17797;DHT22;55596;53.554;9.916;2022-09-03T09:24:40;20.20;99.90
17797;DHT22;55596;53.554;9.916;2022-09-03T09:27:09;20.00;99.90
17797;DHT22;55596;53.554;9.916;2022-09-03T09:29:45;20.30;99.90
17797;DHT22;55596;53.554;9.916;2022-09-03T09:32:16;20.50;99.90
17797;DHT22;55596;53.554;9.916;2022-09-03T09:34:45;20.50;99.30
17797;DHT22;55596;53.554;9.916;2022-09-03T09:37:19;20.50;92.90
17797;DHT22;55596;53.554;9.916;2022-09-03T09:39:54;20.50;95.50
17797;DHT22;55596;53.554;9.916;2022-09-03T09:42:23;20.80;99.90
17797;DHT22;55596;53.554;9.916;2022-09-03T09:44:50;21.00;96.70
17797;DHT22;55596;53.554;9.916;2022-09-03T09:47:24;22.10;99.90
17797;DHT22;55596;53.554;9.916;2022-09-03T09:49:53;21.00;99.90
17797;DHT22;55596;53.554;9.916;2022-09-03T09:52:22;21.20;99.90
17797;DHT22;55596;53.554;9.916;2022-09-03T09:54:52;21.60;95.60
17797;DHT22;55596;53.554;9.916;2022-09-03T09:57:24;21.40;91.40
17797;DHT22;55596;53.554;9.916;2022-09-03T10:00:04;21.20;96.60
17797;DHT22;55596;53.554;9.916;2022-09-03T10:02:35;21.30;87.00
17797;DHT22;55596;53.554;9.916;2022-09-03T10:05:13;22.10;96.70
17797;DHT22;55596;53.554;9.916;2022-09-03T10:07:42;21.90;95.10
17797;DHT22;55596;53.554;9.916;2022-09-03T10:10:16;22.10;89.40
17797;DHT22;55596;53.554;9.916;2022-09-03T10:12:49;21.10;91.90
17797;DHT22;55596;53.554;9.916;2022-09-03T10:15:28;22.10;69.40
17797;DHT22;55596;53.554;9.916;2022-09-03T10:18:07;21.90;77.50
17797;DHT22;55596;53.554;9.916;2022-09-03T10:20:44;22.10;67.40
17797;DHT22;55596;53.554;9.916;2022-09-03T10:23:15;21.90;78.50
17797;DHT22;55596;53.554;9.916;2022-09-03T10:25:54;22.00;90.50
17797;DHT22;55596;53.554;9.916;2022-09-03T10:28:27;21.90;76.90
17797;DHT22;55596;53.554;9.916;2022-09-03T10:31:09;21.90;83.70
17797;DHT22;55596;53.554;9.916;2022-09-03T10:33:46;22.00;68.80
17797;DHT22;55596;53.554;9.916;2022-09-03T10:36:21;21.80;89.60
17797;DHT22;55596;53.554;9.916;2022-09-03T10:38:52;21.90;70.60
17797;DHT22;55596;53.554;9.916;2022-09-03T10:41:31;21.80;89.50
17797;DHT22;55596;53.554;9.916;2022-09-03T10:44:27;21.90;84.70
17797;DHT22;55596;53.554;9.916;2022-09-03T10:47:10;21.70;85.30
17797;DHT22;55596;53.554;9.916;2022-09-03T10:49:49;21.60;71.60
17797;DHT22;55596;53.554;9.916;2022-09-03T10:52:26;21.80;85.60
17797;DHT22;55596;53.554;9.916;2022-09-03T10:55:13;21.70;85.70
17797;DHT22;55596;53.554;9.916;2022-09-03T10:57:50;21.80;82.80
17797;DHT22;55596;53.554;9.916;2022-09-03T11:00:19;21.80;69.60
17797;DHT22;55596;53.554;9.916;2022-09-03T11:03:26;22.00;69.30
17797;DHT22;55596;53.554;9.916;2022-09-03T11:06:05;22.00;84.30
17797;DHT22;55596;53.554;9.916;2022-09-03T11:08:38;22.60;77.10
17797;DHT22;55596;53.554;9.916;2022-09-03T11:11:14;22.30;77.40
17797;DHT22;55596;53.554;9.916;2022-09-03T11:13:47;22.60;80.20
17797;DHT22;55596;53.554;9.916;2022-09-03T11:16:17;23.20;84.90
17797;DHT22;55596;53.554;9.916;2022-09-03T11:18:48;22.70;83.60
17797;DHT22;55596;53.554;9.916;2022-09-03T11:21:21;23.00;71.70
17797;DHT22;55596;53.554;9.916;2022-09-03T11:23:56;23.30;68.30
17797;DHT22;55596;53.554;9.916;2022-09-03T11:26:27;23.20;67.30
17797;DHT22;55596;53.554;9.916;2022-09-03T11:29:02;23.40;78.70
17797;DHT22;55596;53.554;9.916;2022-09-03T11:31:37;23.40;77.70
17797;DHT22;55596;53.554;9.916;2022-09-03T11:34:11;23.70;66.90
17797;DHT22;55596;53.554;9.916;2022-09-03T11:36:41;23.90;57.90
17797;DHT22;55596;53.554;9.916;2022-09-03T11:39:13;25.00;66.50
17797;DHT22;55596;53.554;9.916;2022-09-03T11:41:56;26.10;61.10
17797;DHT22;55596;53.554;9.916;2022-09-03T11:44:25;27.20;64.60
17797;DHT22;55596;53.554;9.916;2022-09-03T11:47:13;28.10;59.90
17797;DHT22;55596;53.554;9.916;2022-09-03T11:49:44;28.60;57.10
17797;DHT22;55596;53.554;9.916;2022-09-03T11:52:25;29.20;56.00
17797;DHT22;55596;53.554;9.916;2022-09-03T11:54:52;29.00;52.50
17797;DHT22;55596;53.554;9.916;2022-09-03T11:57:24;29.00;48.90
17797;DHT22;55596;53.554;9.916;2022-09-03T11:59:53;29.30;51.80
17797;DHT22;55596;53.554;9.916;2022-09-03T12:02:26;28.80;50.10
17797;DHT22;55596;53.554;9.916;2022-09-03T12:05:11;29.20;51.80
17797;DHT22;55596;53.554;9.916;2022-09-03T12:08:03;29.80;47.30
17797;DHT22;55596;53.554;9.916;2022-09-03T12:10:38;30.10;48.50
17797;DHT22;55596;53.554;9.916;2022-09-03T12:13:24;30.10;49.70
17797;DHT22;55596;53.554;9.916;2022-09-03T12:19:01;29.80;46.70
17797;DHT22;55596;53.554;9.916;2022-09-03T12:21:36;30.10;31.40
17797;DHT22;55596;53.554;9.916;2022-09-03T12:24:10;30.40;40.00
17797;DHT22;55596;53.554;9.916;2022-09-03T12:26:39;30.60;43.50
17797;DHT22;55596;53.554;9.916;2022-09-03T12:29:06;30.50;36.50
17797;DHT22;55596;53.554;9.916;2022-09-03T12:31:48;30.70;43.30
17797;DHT22;55596;53.554;9.916;2022-09-03T12:34:18;31.40;33.10
17797;DHT22;55596;53.554;9.916;2022-09-03T12:36:46;31.40;39.90
17797;DHT22;55596;53.554;9.916;2022-09-03T12:39:17;31.60;45.10
17797;DHT22;55596;53.554;9.916;2022-09-03T12:41:57;31.80;43.80
17797;DHT22;55596;53.554;9.916;2022-09-03T12:44:27;32.10;34.50
17797;DHT22;55596;53.554;9.916;2022-09-03T12:47:02;32.40;44.20
17797;DHT22;55596;53.554;9.916;2022-09-03T12:49:37;31.90;43.50
17797;DHT22;55596;53.554;9.916;2022-09-03T12:52:10;31.40;30.40
17797;DHT22;55596;53.554;9.916;2022-09-03T12:54:45;32.20;28.60
17797;DHT22;55596;53.554;9.916;2022-09-03T12:57:18;33.30;35.20
17797;DHT22;55596;53.554;9.916;2022-09-03T12:59:48;34.00;30.80
17797;DHT22;55596;53.554;9.916;2022-09-03T13:02:20;33.90;40.20
17797;DHT22;55596;53.554;9.916;2022-09-03T13:04:49;33.80;31.90
17797;DHT22;55596;53.554;9.916;2022-09-03T13:07:23;33.80;40.20
17797;DHT22;55596;53.554;9.916;2022-09-03T13:09:59;34.10;39.50
17797;DHT22;55596;53.554;9.916;2022-09-03T13:12:31;34.80;32.30
17797;DHT22;55596;53.554;9.916;2022-09-03T13:15:06;35.30;29.20
17797;DHT22;55596;53.554;9.916;2022-09-03T13:17:57;36.20;26.90
17797;DHT22;55596;53.554;9.916;2022-09-03T13:20:33;36.20;36.70
17797;DHT22;55596;53.554;9.916;2022-09-03T13:23:22;36.00;29.20
17797;DHT22;55596;53.554;9.916;2022-09-03T13:25:58;36.10;35.20
17797;DHT22;55596;53.554;9.916;2022-09-03T13:28:38;36.10;32.20
17797;DHT22;55596;53.554;9.916;2022-09-03T13:31:17;36.00;35.20
17797;DHT22;55596;53.554;9.916;2022-09-03T13:33:50;36.10;27.80
17797;DHT22;55596;53.554;9.916;2022-09-03T13:36:21;36.20;36.50
17797;DHT22;55596;53.554;9.916;2022-09-03T13:38:53;35.70;32.50
17797;DHT22;55596;53.554;9.916;2022-09-03T13:41:32;35.50;36.20
17797;DHT22;55596;53.554;9.916;2022-09-03T13:44:06;36.00;33.30
17797;DHT22;55596;53.554;9.916;2022-09-03T13:46:40;36.10;34.90
17797;DHT22;55596;53.554;9.916;2022-09-03T13:49:20;36.40;36.10
17797;DHT22;55596;53.554;9.916;2022-09-03T13:52:15;37.10;35.80
17797;DHT22;55596;53.554;9.916;2022-09-03T13:54:51;37.50;34.30
17797;DHT22;55596;53.554;9.916;2022-09-03T13:57:28;36.10;33.20
17797;DHT22;55596;53.554;9.916;2022-09-03T14:00:00;35.70;32.80
17797;DHT22;55596;53.554;9.916;2022-09-03T14:02:38;35.70;35.10
17797;DHT22;55596;53.554;9.916;2022-09-03T14:05:11;36.40;33.00
17797;DHT22;55596;53.554;9.916;2022-09-03T14:07:46;36.90;32.30
17797;DHT22;55596;53.554;9.916;2022-09-03T14:10:22;36.90;28.50
17797;DHT22;55596;53.554;9.916;2022-09-03T14:13:02;37.40;32.90
17797;DHT22;55596;53.554;9.916;2022-09-03T14:15:35;37.40;32.50
17797;DHT22;55596;53.554;9.916;2022-09-03T14:18:11;37.70;27.60
17797;DHT22;55596;53.554;9.916;2022-09-03T14:20:43;37.70;33.10
17797;DHT22;55596;53.554;9.916;2022-09-03T14:23:24;37.90;26.40
17797;DHT22;55596;53.554;9.916;2022-09-03T14:25:54;38.40;29.20
17797;DHT22;55596;53.554;9.916;2022-09-03T14:28:29;38.70;27.20
17797;DHT22;55596;53.554;9.916;2022-09-03T14:31:04;38.50;30.50
17797;DHT22;55596;53.554;9.916;2022-09-03T14:33:41;38.40;29.60
17797;DHT22;55596;53.554;9.916;2022-09-03T14:36:17;38.40;26.70
17797;DHT22;55596;53.554;9.916;2022-09-03T14:38:58;38.60;24.90
17797;DHT22;55596;53.554;9.916;2022-09-03T14:41:44;38.70;30.90
17797;DHT22;55596;53.554;9.916;2022-09-03T14:44:41;39.20;30.90
17797;DHT22;55596;53.554;9.916;2022-09-03T14:47:26;39.20;29.10
17797;DHT22;55596;53.554;9.916;2022-09-03T14:50:21;39.00;31.40
17797;DHT22;55596;53.554;9.916;2022-09-03T14:55:55;39.10;27.30
17797;DHT22;55596;53.554;9.916;2022-09-03T14:58:34;39.00;30.10
17797;DHT22;55596;53.554;9.916;2022-09-03T15:01:10;39.10;30.40
17797;DHT22;55596;53.554;9.916;2022-09-03T15:03:58;39.20;30.70
17797;DHT22;55596;53.554;9.916;2022-09-03T15:06:39;39.30;29.80
17797;DHT22;55596;53.554;9.916;2022-09-03T15:09:17;41.60;31.60
17797;DHT22;55596;53.554;9.916;2022-09-03T15:11:49;39.00;29.60
17797;DHT22;55596;53.554;9.916;2022-09-03T15:14:23;38.10;31.10
17797;DHT22;55596;53.554;9.916;2022-09-03T15:16:58;37.60;30.40
17797;DHT22;55596;53.554;9.916;2022-09-03T15:19:52;36.80;31.40
17797;DHT22;55596;53.554;9.916;2022-09-03T15:22:39;35.90;32.00
17797;DHT22;55596;53.554;9.916;2022-09-03T15:25:16;34.60;33.10
17797;DHT22;55596;53.554;9.916;2022-09-03T15:27:59;33.00;34.00
17797;DHT22;55596;53.554;9.916;2022-09-03T15:30:34;32.80;32.60
17797;DHT22;55596;53.554;9.916;2022-09-03T15:33:11;31.40;35.90
17797;DHT22;55596;53.554;9.916;2022-09-03T15:36:02;30.50;35.50
17797;DHT22;55596;53.554;9.916;2022-09-03T15:38:39;29.70;38.00
17797;DHT22;55596;53.554;9.916;2022-09-03T15:41:20;28.80;37.90
17797;DHT22;55596;53.554;9.916;2022-09-03T15:43:50;28.20;41.10
17797;DHT22;55596;53.554;9.916;2022-09-03T15:46:45;27.80;38.70
17797;DHT22;55596;53.554;9.916;2022-09-03T15:49:28;27.10;27.30
17797;DHT22;55596;53.554;9.916;2022-09-03T15:52:07;26.70;42.50
17797;DHT22;55596;53.554;9.916;2022-09-03T15:54:41;26.40;37.50
17797;DHT22;55596;53.554;9.916;2022-09-03T15:57:12;26.00;40.70
17797;DHT22;55596;53.554;9.916;2022-09-03T15:59:49;25.70;42.90
17797;DHT22;55596;53.554;9.916;2022-09-03T16:02:22;25.40;41.50
17797;DHT22;55596;53.554;9.916;2022-09-03T16:05:02;25.10;44.60
17797;DHT22;55596;53.554;9.916;2022-09-03T16:07:45;24.90;46.00
17797;DHT22;55596;53.554;9.916;2022-09-03T16:10:15;24.50;46.10
17797;DHT22;55596;53.554;9.916;2022-09-03T16:12:51;24.10;31.00
17797;DHT22;55596;53.554;9.916;2022-09-03T16:15:24;24.30;30.70
17797;DHT22;55596;53.554;9.916;2022-09-03T16:17:56;24.00;44.60
17797;DHT22;55596;53.554;9.916;2022-09-03T16:20:33;24.00;39.00